sensor_id;sensor_type;location;lat;lon;timestamp;temperature;humidity
12276;DHT22;6200;48.144;11.424;2022-12-07T00:01:13;4.00;99.90
12276;DHT22;6200;48.144;11.424;2022-12-07T00:03:39;4.00;99.90
12276;DHT22;6200;48.144;11.424;2022-12-07T00:06:06;4.00;99.90
12276;DHT22;6200;48.144;11.424;2022-12-07T00:08:33;4.00;99.90
12276;DHT22;6200;48.144;11.424;2022-12-07T00:11:10;4.00;99.90
12276;DHT22;6200;48.144;11.424;2022-12-07T00:13:37;3.90;99.90
12276;DHT22;6200;48.144;11.424;2022-12-07T00:18:32;3.90;99.90
12276;DHT22;6200;48.144;11.424;2022-12-07T00:23:27;3.90;99.90
12276;DHT22;6200;48.144;11.424;2022-12-07T00:25:53;3.80;99.90
12276;DHT22;6200;48.144;11.424;2022-12-07T00:28:18;3.80;99.90
12276;DHT22;6200;48.144;11.424;2022-12-07T00:30:44;3.80;99.90
12276;DHT22;6200;48.144;11.424;2022-12-07T00:33:09;3.80;99.90
12276;DHT22;6200;48.144;11.424;2022-12-07T00:35:35;3.80;99.90
12276;DHT22;6200;48.144;11.424;2022-12-07T00:38:00;3.80;99.90
12276;DHT22;6200;48.144;11.424;2022-12-07T00:40:26;3.80;99.90
12276;DHT22;6200;48.144;11.424;2022-12-07T00:42:51;3.80;99.90
12276;DHT22;6200;48.144;11.424;2022-12-07T00:45:17;3.80;99.90
12276;DHT22;6200;48.144;11.424;2022-12-07T00:47:43;3.90;99.90
12276;DHT22;6200;48.144;11.424;2022-12-07T00:50:08;3.80;99.90
12276;DHT22;6200;48.144;11.424;2022-12-07T00:52:34;3.90;99.90
12276;DHT22;6200;48.144;11.424;2022-12-07T00:54:59;3.80;99.90
12276;DHT22;6200;48.144;11.424;2022-12-07T00:57:25;3.90;99.90
12276;DHT22;6200;48.144;11.424;2022-12-07T00:59:50;3.80;99.90
12276;DHT22;6200;48.144;11.424;2022-12-07T01:02:20;3.80;99.90
12276;DHT22;6200;48.144;11.424;2022-12-07T01:04:46;3.80;99.90
12276;DHT22;6200;48.144;11.424;2022-12-07T01:07:11;3.90;99.90
12276;DHT22;6200;48.144;11.424;2022-12-07T01:09:37;3.80;99.90
12276;DHT22;6200;48.144;11.424;2022-12-07T01:12:02;3.80;99.90
12276;DHT22;6200;48.144;11.424;2022-12-07T01:14:28;3.80;99.90
12276;DHT22;6200;48.144;11.424;2022-12-07T01:16:54;3.80;99.90
12276;DHT22;6200;48.144;11.424;2022-12-07T01:19:19;3.90;99.90
12276;DHT22;6200;48.144;11.424;2022-12-07T01:21:45;3.80;99.90
12276;DHT22;6200;48.144;11.424;2022-12-07T01:24:10;3.80;99.90
12276;DHT22;6200;48.144;11.424;2022-12-07T01:26:36;3.90;99.90
12276;DHT22;6200;48.144;11.424;2022-12-07T01:29:02;3.90;99.90
12276;DHT22;6200;48.144;11.424;2022-12-07T01:31:28;3.80;99.90
12276;DHT22;6200;48.144;11.424;2022-12-07T01:33:56;3.80;99.90
12276;DHT22;6200;48.144;11.424;2022-12-07T01:36:24;3.80;99.90
12276;DHT22;6200;48.144;11.424;2022-12-07T01:38:54;3.90;99.90
12276;DHT22;6200;48.144;11.424;2022-12-07T01:41:22;3.90;99.90
12276;DHT22;6200;48.144;11.424;2022-12-07T01:44:09;3.90;99.90
12276;DHT22;6200;48.144;11.424;2022-12-07T01:46:35;3.90;99.90
12276;DHT22;6200;48.144;11.424;2022-12-07T01:49:01;3.90;99.90
12276;DHT22;6200;48.144;11.424;2022-12-07T01:51:28;3.90;99.90
12276;DHT22;6200;48.144;11.424;2022-12-07T01:53:54;3.90;99.90
12276;DHT22;6200;48.144;11.424;2022-12-07T01:56:24;3.80;99.90
12276;DHT22;6200;48.144;11.424;2022-12-07T01:58:51;3.80;99.90
12276;DHT22;6200;48.144;11.424;2022-12-07T02:01:18;3.80;99.90
12276;DHT22;6200;48.144;11.424;2022-12-07T02:03:44;3.80;99.90
12276;DHT22;6200;48.144;11.424;2022-12-07T02:06:13;3.80;99.90
12276;DHT22;6200;48.144;11.424;2022-12-07T02:08:42;3.80;99.90
12276;DHT22;6200;48.144;11.424;2022-12-07T02:11:08;3.80;99.90
12276;DHT22;6200;48.144;11.424;2022-12-07T02:13:36;3.70;99.90
12276;DHT22;6200;48.144;11.424;2022-12-07T02:25:28;3.70;99.90
12276;DHT22;6200;48.144;11.424;2022-12-07T02:30:37;3.70;99.90
12276;DHT22;6200;48.144;11.424;2022-12-07T02:33:07;3.60;99.90
12276;DHT22;6200;48.144;11.424;2022-12-07T02:35:44;6.30;99.90
12276;DHT22;6200;48.144;11.424;2022-12-07T02:38:19;3.60;99.90
12276;DHT22;6200;48.144;11.424;2022-12-07T02:43:23;3.60;99.90
12276;DHT22;6200;48.144;11.424;2022-12-07T02:45:52;3.50;99.90
12276;DHT22;6200;48.144;11.424;2022-12-07T02:48:19;3.60;99.90
12276;DHT22;6200;48.144;11.424;2022-12-07T02:50:49;3.60;99.90
12276;DHT22;6200;48.144;11.424;2022-12-07T02:53:33;3.60;99.90
12276;DHT22;6200;48.144;11.424;2022-12-07T02:58:54;3.50;99.90
12276;DHT22;6200;48.144;11.424;2022-12-07T03:01:29;3.60;99.90
12276;DHT22;6200;48.144;11.424;2022-12-07T03:06:42;3.60;99.90
12276;DHT22;6200;48.144;11.424;2022-12-07T03:09:36;3.60;99.90
12276;DHT22;6200;48.144;11.424;2022-12-07T03:12:18;5.50;99.90
12276;DHT22;6200;48.144;11.424;2022-12-07T03:14:55;3.50;99.90
12276;DHT22;6200;48.144;11.424;2022-12-07T03:17:25;3.50;99.90
12276;DHT22;6200;48.144;11.424;2022-12-07T03:19:55;3.40;99.90
12276;DHT22;6200;48.144;11.424;2022-12-07T03:22:23;3.40;99.90
12276;DHT22;6200;48.144;11.424;2022-12-07T03:24:52;3.50;99.90
12276;DHT22;6200;48.144;11.424;2022-12-07T03:27:25;3.50;99.90
12276;DHT22;6200;48.144;11.424;2022-12-07T03:30:00;3.50;99.90
12276;DHT22;6200;48.144;11.424;2022-12-07T03:32:37;3.50;99.90
12276;DHT22;6200;48.144;11.424;2022-12-07T03:35:08;3.50;99.90
12276;DHT22;6200;48.144;11.424;2022-12-07T03:37:41;3.50;99.90
12276;DHT22;6200;48.144;11.424;2022-12-07T03:40:13;3.50;99.90
12276;DHT22;6200;48.144;11.424;2022-12-07T03:42:41;3.50;99.90
12276;DHT22;6200;48.144;11.424;2022-12-07T03:45:07;3.50;99.90
12276;DHT22;6200;48.144;11.424;2022-12-07T03:50:15;3.60;99.90
12276;DHT22;6200;48.144;11.424;2022-12-07T03:52:53;3.60;99.90
12276;DHT22;6200;48.144;11.424;2022-12-07T03:55:25;3.60;99.90
12276;DHT22;6200;48.144;11.424;2022-12-07T03:57:55;3.60;99.90
12276;DHT22;6200;48.144;11.424;2022-12-07T04:00:22;3.60;99.90
12276;DHT22;6200;48.144;11.424;2022-12-07T04:02:47;3.60;99.90
12276;DHT22;6200;48.144;11.424;2022-12-07T04:05:16;3.50;99.90
12276;DHT22;6200;48.144;11.424;2022-12-07T04:07:41;3.50;99.90
12276;DHT22;6200;48.144;11.424;2022-12-07T04:10:07;3.60;99.90
12276;DHT22;6200;48.144;11.424;2022-12-07T04:12:33;3.60;99.90
12276;DHT22;6200;48.144;11.424;2022-12-07T04:14:58;3.60;99.90
12276;DHT22;6200;48.144;11.424;2022-12-07T04:17:24;3.50;99.90
12276;DHT22;6200;48.144;11.424;2022-12-07T04:19:49;3.60;99.90
12276;DHT22;6200;48.144;11.424;2022-12-07T04:22:15;3.60;99.90
12276;DHT22;6200;48.144;11.424;2022-12-07T04:24:41;4.40;99.90
12276;DHT22;6200;48.144;11.424;2022-12-07T04:27:06;3.50;99.90
12276;DHT22;6200;48.144;11.424;2022-12-07T04:29:32;3.50;99.90
12276;DHT22;6200;48.144;11.424;2022-12-07T04:31:57;3.50;99.90
12276;DHT22;6200;48.144;11.424;2022-12-07T04:34:23;3.60;99.90
12276;DHT22;6200;48.144;11.424;2022-12-07T04:36:49;3.60;99.90
12276;DHT22;6200;48.144;11.424;2022-12-07T04:39:23;3.50;99.90
12276;DHT22;6200;48.144;11.424;2022-12-07T04:41:49;3.50;99.90
12276;DHT22;6200;48.144;11.424;2022-12-07T04:44:15;3.40;99.90
12276;DHT22;6200;48.144;11.424;2022-12-07T04:46:42;3.50;99.90
12276;DHT22;6200;48.144;11.424;2022-12-07T04:49:07;3.40;99.90
12276;DHT22;6200;48.144;11.424;2022-12-07T04:51:33;3.50;99.90
12276;DHT22;6200;48.144;11.424;2022-12-07T04:53:59;3.50;99.90
12276;DHT22;6200;48.144;11.424;2022-12-07T04:56:24;3.40;99.90
12276;DHT22;6200;48.144;11.424;2022-12-07T04:58:52;3.50;99.90
12276;DHT22;6200;48.144;11.424;2022-12-07T05:01:18;3.50;99.90
12276;DHT22;6200;48.144;11.424;2022-12-07T05:03:44;3.40;99.90
12276;DHT22;6200;48.144;11.424;2022-12-07T05:06:10;3.40;99.90
12276;DHT22;6200;48.144;11.424;2022-12-07T05:08:36;3.40;99.90
12276;DHT22;6200;48.144;11.424;2022-12-07T05:11:03;3.40;99.90
12276;DHT22;6200;48.144;11.424;2022-12-07T05:13:30;3.40;99.90
12276;DHT22;6200;48.144;11.424;2022-12-07T05:15:55;3.30;99.90
12276;DHT22;6200;48.144;11.424;2022-12-07T05:18:21;3.30;99.90
12276;DHT22;6200;48.144;11.424;2022-12-07T05:20:46;3.30;99.90
12276;DHT22;6200;48.144;11.424;2022-12-07T05:23:12;3.30;99.90
12276;DHT22;6200;48.144;11.424;2022-12-07T05:25:38;3.30;99.90
12276;DHT22;6200;48.144;11.424;2022-12-07T05:28:04;3.30;99.90
12276;DHT22;6200;48.144;11.424;2022-12-07T05:30:30;3.30;99.90
12276;DHT22;6200;48.144;11.424;2022-12-07T05:32:56;3.30;99.90
12276;DHT22;6200;48.144;11.424;2022-12-07T05:35:22;3.30;99.90
12276;DHT22;6200;48.144;11.424;2022-12-07T05:37:47;3.30;99.90
12276;DHT22;6200;48.144;11.424;2022-12-07T05:40:14;3.30;99.90
12276;DHT22;6200;48.144;11.424;2022-12-07T05:42:41;3.30;99.90
12276;DHT22;6200;48.144;11.424;2022-12-07T05:45:08;3.30;99.90
12276;DHT22;6200;48.144;11.424;2022-12-07T05:47:33;3.30;99.90
12276;DHT22;6200;48.144;11.424;2022-12-07T05:49:59;3.30;99.90
12276;DHT22;6200;48.144;11.424;2022-12-07T05:52:25;3.30;99.90
12276;DHT22;6200;48.144;11.424;2022-12-07T05:54:51;3.30;99.90
12276;DHT22;6200;48.144;11.424;2022-12-07T05:57:17;3.20;99.90
12276;DHT22;6200;48.144;11.424;2022-12-07T05:59:42;3.30;99.90
12276;DHT22;6200;48.144;11.424;2022-12-07T06:02:10;3.30;99.90
12276;DHT22;6200;48.144;11.424;2022-12-07T06:04:38;3.30;99.90
12276;DHT22;6200;48.144;11.424;2022-12-07T06:07:05;3.40;99.90
12276;DHT22;6200;48.144;11.424;2022-12-07T06:09:31;3.30;99.90
12276;DHT22;6200;48.144;11.424;2022-12-07T06:11:57;3.30;99.90
12276;DHT22;6200;48.144;11.424;2022-12-07T06:14:42;3.50;99.90
12276;DHT22;6200;48.144;11.424;2022-12-07T06:17:08;3.30;99.90
12276;DHT22;6200;48.144;11.424;2022-12-07T06:19:34;3.20;99.90
12276;DHT22;6200;48.144;11.424;2022-12-07T06:22:01;3.20;99.90
12276;DHT22;6200;48.144;11.424;2022-12-07T06:24:26;3.20;99.90
12276;DHT22;6200;48.144;11.424;2022-12-07T06:26:52;3.20;99.90
12276;DHT22;6200;48.144;11.424;2022-12-07T06:29:18;3.20;99.90
12276;DHT22;6200;48.144;11.424;2022-12-07T06:31:44;2.00;99.90
12276;DHT22;6200;48.144;11.424;2022-12-07T06:34:13;3.20;99.90
12276;DHT22;6200;48.144;11.424;2022-12-07T06:36:39;3.20;99.90
12276;DHT22;6200;48.144;11.424;2022-12-07T06:39:05;3.20;99.90
12276;DHT22;6200;48.144;11.424;2022-12-07T06:41:31;3.20;99.90
12276;DHT22;6200;48.144;11.424;2022-12-07T06:43:57;3.20;99.90
12276;DHT22;6200;48.144;11.424;2022-12-07T06:46:23;3.20;99.90
12276;DHT22;6200;48.144;11.424;2022-12-07T06:48:48;3.20;99.90
12276;DHT22;6200;48.144;11.424;2022-12-07T06:51:14;3.20;99.90
12276;DHT22;6200;48.144;11.424;2022-12-07T06:53:40;3.20;99.90
12276;DHT22;6200;48.144;11.424;2022-12-07T06:56:06;3.20;99.90
12276;DHT22;6200;48.144;11.424;2022-12-07T06:58:31;3.20;99.90
12276;DHT22;6200;48.144;11.424;2022-12-07T07:00:57;3.20;99.90
12276;DHT22;6200;48.144;11.424;2022-12-07T07:03:22;3.20;99.90
12276;DHT22;6200;48.144;11.424;2022-12-07T07:05:48;3.20;99.90
12276;DHT22;6200;48.144;11.424;2022-12-07T07:08:14;3.20;99.90
12276;DHT22;6200;48.144;11.424;2022-12-07T07:10:40;3.30;99.90
12276;DHT22;6200;48.144;11.424;2022-12-07T07:13:06;3.20;99.90
12276;DHT22;6200;48.144;11.424;2022-12-07T07:15:33;3.20;99.90
12276;DHT22;6200;48.144;11.424;2022-12-07T07:17:58;3.20;99.90
12276;DHT22;6200;48.144;11.424;2022-12-07T07:20:24;3.20;99.90
12276;DHT22;6200;48.144;11.424;2022-12-07T07:22:50;3.20;99.90
12276;DHT22;6200;48.144;11.424;2022-12-07T07:25:15;3.20;99.90
12276;DHT22;6200;48.144;11.424;2022-12-07T07:27:41;3.20;99.90
12276;DHT22;6200;48.144;11.424;2022-12-07T07:30:07;3.20;99.90
12276;DHT22;6200;48.144;11.424;2022-12-07T07:32:33;3.20;99.90
12276;DHT22;6200;48.144;11.424;2022-12-07T07:34:58;3.20;99.90
12276;DHT22;6200;48.144;11.424;2022-12-07T07:37:25;3.20;99.90
12276;DHT22;6200;48.144;11.424;2022-12-07T07:39:51;3.20;99.90
12276;DHT22;6200;48.144;11.424;2022-12-07T07:42:16;3.20;99.90
12276;DHT22;6200;48.144;11.424;2022-12-07T07:44:42;3.20;99.90
12276;DHT22;6200;48.144;11.424;2022-12-07T07:47:08;3.20;99.90
12276;DHT22;6200;48.144;11.424;2022-12-07T07:49:33;3.20;99.90
12276;DHT22;6200;48.144;11.424;2022-12-07T07:51:59;3.20;99.90
12276;DHT22;6200;48.144;11.424;2022-12-07T07:54:24;3.20;99.90
12276;DHT22;6200;48.144;11.424;2022-12-07T07:56:50;3.20;99.90
12276;DHT22;6200;48.144;11.424;2022-12-07T07:59:16;3.20;99.90
12276;DHT22;6200;48.144;11.424;2022-12-07T08:01:41;3.30;99.90
12276;DHT22;6200;48.144;11.424;2022-12-07T08:04:07;3.20;99.90
12276;DHT22;6200;48.144;11.424;2022-12-07T08:06:32;3.30;99.90
12276;DHT22;6200;48.144;11.424;2022-12-07T08:08:58;3.30;99.90
12276;DHT22;6200;48.144;11.424;2022-12-07T08:11:24;3.30;99.90
12276;DHT22;6200;48.144;11.424;2022-12-07T08:13:49;3.30;99.90
12276;DHT22;6200;48.144;11.424;2022-12-07T08:16:15;3.30;99.90
12276;DHT22;6200;48.144;11.424;2022-12-07T08:18:41;3.30;99.90
12276;DHT22;6200;48.144;11.424;2022-12-07T08:21:11;3.30;99.90
12276;DHT22;6200;48.144;11.424;2022-12-07T08:23:36;3.30;99.90
12276;DHT22;6200;48.144;11.424;2022-12-07T08:26:04;3.40;99.90
12276;DHT22;6200;48.144;11.424;2022-12-07T08:28:30;3.40;99.90
12276;DHT22;6200;48.144;11.424;2022-12-07T08:31:00;3.40;99.90
12276;DHT22;6200;48.144;11.424;2022-12-07T08:33:26;3.40;99.90
12276;DHT22;6200;48.144;11.424;2022-12-07T08:35:51;3.50;99.90
12276;DHT22;6200;48.144;11.424;2022-12-07T08:38:17;3.50;99.90
12276;DHT22;6200;48.144;11.424;2022-12-07T08:40:42;3.50;99.90
12276;DHT22;6200;48.144;11.424;2022-12-07T08:43:08;3.50;99.90
12276;DHT22;6200;48.144;11.424;2022-12-07T08:45:33;3.60;99.90
12276;DHT22;6200;48.144;11.424;2022-12-07T08:48:11;3.60;99.90
12276;DHT22;6200;48.144;11.424;2022-12-07T08:50:39;3.60;99.90
12276;DHT22;6200;48.144;11.424;2022-12-07T08:53:06;3.60;99.90
12276;DHT22;6200;48.144;11.424;2022-12-07T08:55:33;3.70;99.90
12276;DHT22;6200;48.144;11.424;2022-12-07T08:57:59;3.70;99.90
12276;DHT22;6200;48.144;11.424;2022-12-07T09:00:26;3.70;99.90
12276;DHT22;6200;48.144;11.424;2022-12-07T09:02:53;3.70;99.90
12276;DHT22;6200;48.144;11.424;2022-12-07T09:05:19;3.70;99.90
12276;DHT22;6200;48.144;11.424;2022-12-07T09:07:47;3.80;99.90
12276;DHT22;6200;48.144;11.424;2022-12-07T09:10:13;3.80;99.90
12276;DHT22;6200;48.144;11.424;2022-12-07T09:12:39;3.80;99.90
12276;DHT22;6200;48.144;11.424;2022-12-07T09:15:05;3.80;99.90
12276;DHT22;6200;48.144;11.424;2022-12-07T09:17:32;3.90;99.90
12276;DHT22;6200;48.144;11.424;2022-12-07T09:19:58;3.90;99.90
12276;DHT22;6200;48.144;11.424;2022-12-07T09:22:24;4.00;99.90
12276;DHT22;6200;48.144;11.424;2022-12-07T09:24:49;4.00;99.90
12276;DHT22;6200;48.144;11.424;2022-12-07T09:27:15;4.00;99.90
12276;DHT22;6200;48.144;11.424;2022-12-07T09:29:42;4.00;99.90
12276;DHT22;6200;48.144;11.424;2022-12-07T09:32:08;4.00;99.90
12276;DHT22;6200;48.144;11.424;2022-12-07T09:34:33;4.00;99.90
12276;DHT22;6200;48.144;11.424;2022-12-07T09:37:01;4.10;99.90
12276;DHT22;6200;48.144;11.424;2022-12-07T09:39:28;4.10;99.90
12276;DHT22;6200;48.144;11.424;2022-12-07T09:41:53;4.10;99.90
12276;DHT22;6200;48.144;11.424;2022-12-07T09:44:24;4.20;99.90
12276;DHT22;6200;48.144;11.424;2022-12-07T09:46:50;4.20;99.90
12276;DHT22;6200;48.144;11.424;2022-12-07T09:49:20;4.30;99.90
12276;DHT22;6200;48.144;11.424;2022-12-07T09:51:47;4.30;99.90
12276;DHT22;6200;48.144;11.424;2022-12-07T09:54:14;4.40;99.90
12276;DHT22;6200;48.144;11.424;2022-12-07T09:56:41;4.50;99.90
12276;DHT22;6200;48.144;11.424;2022-12-07T09:59:13;4.50;99.90
12276;DHT22;6200;48.144;11.424;2022-12-07T10:01:41;4.60;99.90
12276;DHT22;6200;48.144;11.424;2022-12-07T10:04:20;4.60;99.90
12276;DHT22;6200;48.144;11.424;2022-12-07T10:06:48;4.70;99.90
12276;DHT22;6200;48.144;11.424;2022-12-07T10:09:18;4.60;99.90
12276;DHT22;6200;48.144;11.424;2022-12-07T10:12:10;4.70;99.90
12276;DHT22;6200;48.144;11.424;2022-12-07T10:15:10;4.70;99.90
12276;DHT22;6200;48.144;11.424;2022-12-07T10:17:38;4.80;99.90
12276;DHT22;6200;48.144;11.424;2022-12-07T10:20:26;4.90;99.90
12276;DHT22;6200;48.144;11.424;2022-12-07T10:23:04;4.90;99.90
12276;DHT22;6200;48.144;11.424;2022-12-07T10:25:33;4.90;99.90
12276;DHT22;6200;48.144;11.424;2022-12-07T10:30:46;5.00;99.90
12276;DHT22;6200;48.144;11.424;2022-12-07T10:33:38;5.10;99.90
12276;DHT22;6200;48.144;11.424;2022-12-07T10:36:18;5.10;99.90
12276;DHT22;6200;48.144;11.424;2022-12-07T10:38:50;5.10;99.90
12276;DHT22;6200;48.144;11.424;2022-12-07T10:41:16;5.40;99.90
12276;DHT22;6200;48.144;11.424;2022-12-07T10:43:56;5.50;99.90
12276;DHT22;6200;48.144;11.424;2022-12-07T10:46:43;5.60;99.90
12276;DHT22;6200;48.144;11.424;2022-12-07T10:49:26;5.60;99.90
12276;DHT22;6200;48.144;11.424;2022-12-07T10:52:18;5.70;99.90
12276;DHT22;6200;48.144;11.424;2022-12-07T11:00:22;5.90;99.90
12276;DHT22;6200;48.144;11.424;2022-12-07T11:05:49;6.10;99.90
12276;DHT22;6200;48.144;11.424;2022-12-07T11:09:21;6.30;99.90
12276;DHT22;6200;48.144;11.424;2022-12-07T11:14:28;6.50;99.90
12276;DHT22;6200;48.144;11.424;2022-12-07T11:22:23;6.60;99.90
12276;DHT22;6200;48.144;11.424;2022-12-07T11:25:22;6.60;99.90
12276;DHT22;6200;48.144;11.424;2022-12-07T11:28:17;6.70;99.90
12276;DHT22;6200;48.144;11.424;2022-12-07T11:30:55;6.90;99.90
12276;DHT22;6200;48.144;11.424;2022-12-07T11:37:00;6.90;99.90
12276;DHT22;6200;48.144;11.424;2022-12-07T11:42:04;7.00;99.90
12276;DHT22;6200;48.144;11.424;2022-12-07T11:47:20;7.10;99.90
12276;DHT22;6200;48.144;11.424;2022-12-07T11:49:53;7.10;99.90
12276;DHT22;6200;48.144;11.424;2022-12-07T11:52:32;6.90;99.90
12276;DHT22;6200;48.144;11.424;2022-12-07T11:55:14;6.90;99.90
12276;DHT22;6200;48.144;11.424;2022-12-07T11:57:45;6.90;99.90
12276;DHT22;6200;48.144;11.424;2022-12-07T12:00:16;6.70;99.90
12276;DHT22;6200;48.144;11.424;2022-12-07T12:03:12;6.60;99.90
12276;DHT22;6200;48.144;11.424;2022-12-07T12:05:40;6.60;99.90
12276;DHT22;6200;48.144;11.424;2022-12-07T12:08:20;6.50;99.90
12276;DHT22;6200;48.144;11.424;2022-12-07T12:11:17;6.50;99.90
12276;DHT22;6200;48.144;11.424;2022-12-07T12:21:53;6.70;99.90
12276;DHT22;6200;48.144;11.424;2022-12-07T12:24:23;6.70;99.90
12276;DHT22;6200;48.144;11.424;2022-12-07T12:27:37;6.60;99.90
12276;DHT22;6200;48.144;11.424;2022-12-07T12:29:39;6.60;99.90
12276;DHT22;6200;48.144;11.424;2022-12-07T12:32:22;6.60;99.90
12276;DHT22;6200;48.144;11.424;2022-12-07T12:35:01;6.60;99.90
12276;DHT22;6200;48.144;11.424;2022-12-07T12:42:48;6.50;99.90
12276;DHT22;6200;48.144;11.424;2022-12-07T12:45:29;6.50;99.90
12276;DHT22;6200;48.144;11.424;2022-12-07T12:53:24;6.30;99.90
12276;DHT22;6200;48.144;11.424;2022-12-07T12:56:35;6.20;99.90
12276;DHT22;6200;48.144;11.424;2022-12-07T12:59:23;6.20;99.90
12276;DHT22;6200;48.144;11.424;2022-12-07T13:02:32;6.10;99.90
12276;DHT22;6200;48.144;11.424;2022-12-07T13:04:55;6.10;99.90
12276;DHT22;6200;48.144;11.424;2022-12-07T13:15:48;6.10;99.90
12276;DHT22;6200;48.144;11.424;2022-12-07T13:28:43;6.00;99.90
12276;DHT22;6200;48.144;11.424;2022-12-07T13:33:39;6.00;99.90
12276;DHT22;6200;48.144;11.424;2022-12-07T13:36:05;5.80;99.90
12276;DHT22;6200;48.144;11.424;2022-12-07T13:38:35;5.80;99.90
12276;DHT22;6200;48.144;11.424;2022-12-07T13:41:14;5.70;99.90
12276;DHT22;6200;48.144;11.424;2022-12-07T13:43:52;5.80;99.90
12276;DHT22;6200;48.144;11.424;2022-12-07T13:46:22;5.80;99.90
12276;DHT22;6200;48.144;11.424;2022-12-07T13:48:50;5.80;99.90
12276;DHT22;6200;48.144;11.424;2022-12-07T13:51:26;5.80;99.90
12276;DHT22;6200;48.144;11.424;2022-12-07T13:54:00;5.80;99.90
12276;DHT22;6200;48.144;11.424;2022-12-07T13:56:34;5.70;99.90
12276;DHT22;6200;48.144;11.424;2022-12-07T13:59:00;5.60;99.90
12276;DHT22;6200;48.144;11.424;2022-12-07T14:01:26;5.60;99.90
12276;DHT22;6200;48.144;11.424;2022-12-07T14:03:52;5.70;99.90
12276;DHT22;6200;48.144;11.424;2022-12-07T14:06:24;5.60;99.90
12276;DHT22;6200;48.144;11.424;2022-12-07T14:09:05;5.60;99.90
12276;DHT22;6200;48.144;11.424;2022-12-07T14:11:31;5.60;99.90
12276;DHT22;6200;48.144;11.424;2022-12-07T14:13:59;5.50;99.90
12276;DHT22;6200;48.144;11.424;2022-12-07T14:16:32;5.50;99.90
12276;DHT22;6200;48.144;11.424;2022-12-07T14:18:59;5.50;99.90
12276;DHT22;6200;48.144;11.424;2022-12-07T14:21:27;5.40;99.90
12276;DHT22;6200;48.144;11.424;2022-12-07T14:24:33;5.40;99.90
12276;DHT22;6200;48.144;11.424;2022-12-07T14:27:20;5.50;99.90
12276;DHT22;6200;48.144;11.424;2022-12-07T14:29:46;5.40;99.90
12276;DHT22;6200;48.144;11.424;2022-12-07T14:32:19;5.40;99.90
12276;DHT22;6200;48.144;11.424;2022-12-07T14:35:12;5.40;99.90
12276;DHT22;6200;48.144;11.424;2022-12-07T14:37:40;5.30;99.90
12276;DHT22;6200;48.144;11.424;2022-12-07T14:40:06;5.30;99.90
12276;DHT22;6200;48.144;11.424;2022-12-07T14:42:33;5.30;99.90
12276;DHT22;6200;48.144;11.424;2022-12-07T14:44:59;5.20;99.90
12276;DHT22;6200;48.144;11.424;2022-12-07T14:47:26;5.30;99.90
12276;DHT22;6200;48.144;11.424;2022-12-07T14:49:52;5.20;99.90
12276;DHT22;6200;48.144;11.424;2022-12-07T14:52:20;5.20;99.90
12276;DHT22;6200;48.144;11.424;2022-12-07T14:54:46;5.10;99.90
12276;DHT22;6200;48.144;11.424;2022-12-07T14:57:12;5.10;99.90
12276;DHT22;6200;48.144;11.424;2022-12-07T14:59:38;5.00;99.90
12276;DHT22;6200;48.144;11.424;2022-12-07T15:02:04;5.00;99.90
12276;DHT22;6200;48.144;11.424;2022-12-07T15:04:30;4.90;99.90
12276;DHT22;6200;48.144;11.424;2022-12-07T15:07:02;4.80;99.90
12276;DHT22;6200;48.144;11.424;2022-12-07T15:09:28;4.70;99.90
12276;DHT22;6200;48.144;11.424;2022-12-07T15:11:54;4.70;99.90
12276;DHT22;6200;48.144;11.424;2022-12-07T15:14:19;4.70;99.90
12276;DHT22;6200;48.144;11.424;2022-12-07T15:16:45;4.60;99.90
12276;DHT22;6200;48.144;11.424;2022-12-07T15:19:21;4.60;99.90
12276;DHT22;6200;48.144;11.424;2022-12-07T15:21:53;4.60;99.90
12276;DHT22;6200;48.144;11.424;2022-12-07T15:24:19;4.60;99.90
12276;DHT22;6200;48.144;11.424;2022-12-07T15:26:45;4.60;99.90
12276;DHT22;6200;48.144;11.424;2022-12-07T15:29:11;4.70;99.90
12276;DHT22;6200;48.144;11.424;2022-12-07T15:31:37;4.70;99.90
12276;DHT22;6200;48.144;11.424;2022-12-07T15:34:03;4.70;99.90
12276;DHT22;6200;48.144;11.424;2022-12-07T15:36:30;4.70;99.90
12276;DHT22;6200;48.144;11.424;2022-12-07T15:38:57;4.50;99.90
12276;DHT22;6200;48.144;11.424;2022-12-07T15:41:23;4.40;99.90
12276;DHT22;6200;48.144;11.424;2022-12-07T15:43:48;4.40;99.90
12276;DHT22;6200;48.144;11.424;2022-12-07T15:46:34;4.30;99.90
12276;DHT22;6200;48.144;11.424;2022-12-07T15:49:00;4.30;99.90
12276;DHT22;6200;48.144;11.424;2022-12-07T15:51:26;4.30;99.90
12276;DHT22;6200;48.144;11.424;2022-12-07T15:53:52;4.20;99.90
12276;DHT22;6200;48.144;11.424;2022-12-07T15:56:19;4.20;99.90
12276;DHT22;6200;48.144;11.424;2022-12-07T15:58:44;4.20;99.90
12276;DHT22;6200;48.144;11.424;2022-12-07T16:01:14;4.20;99.90
12276;DHT22;6200;48.144;11.424;2022-12-07T16:03:40;4.10;99.90
12276;DHT22;6200;48.144;11.424;2022-12-07T16:06:06;4.10;99.90
12276;DHT22;6200;48.144;11.424;2022-12-07T16:08:32;4.00;99.90
12276;DHT22;6200;48.144;11.424;2022-12-07T16:10:57;4.00;99.90
12276;DHT22;6200;48.144;11.424;2022-12-07T16:13:23;3.90;99.90
12276;DHT22;6200;48.144;11.424;2022-12-07T16:15:49;3.90;99.90
12276;DHT22;6200;48.144;11.424;2022-12-07T16:18:14;3.90;99.90
12276;DHT22;6200;48.144;11.424;2022-12-07T16:20:40;3.80;99.90
12276;DHT22;6200;48.144;11.424;2022-12-07T16:23:06;3.80;99.90
12276;DHT22;6200;48.144;11.424;2022-12-07T16:25:32;3.80;99.90
12276;DHT22;6200;48.144;11.424;2022-12-07T16:27:58;3.70;99.90
12276;DHT22;6200;48.144;11.424;2022-12-07T16:30:23;3.80;99.90
12276;DHT22;6200;48.144;11.424;2022-12-07T16:32:49;3.80;99.90
12276;DHT22;6200;48.144;11.424;2022-12-07T16:35:14;3.80;99.90
12276;DHT22;6200;48.144;11.424;2022-12-07T16:37:42;3.80;99.90
12276;DHT22;6200;48.144;11.424;2022-12-07T16:40:08;3.80;99.90
12276;DHT22;6200;48.144;11.424;2022-12-07T16:42:35;3.80;99.90
12276;DHT22;6200;48.144;11.424;2022-12-07T16:45:01;3.70;99.90
12276;DHT22;6200;48.144;11.424;2022-12-07T16:47:27;3.70;99.90
12276;DHT22;6200;48.144;11.424;2022-12-07T16:49:52;3.60;99.90
12276;DHT22;6200;48.144;11.424;2022-12-07T16:52:19;3.60;99.90
12276;DHT22;6200;48.144;11.424;2022-12-07T16:54:45;3.70;99.90
12276;DHT22;6200;48.144;11.424;2022-12-07T16:57:10;3.50;99.90
12276;DHT22;6200;48.144;11.424;2022-12-07T16:59:36;3.50;99.90
12276;DHT22;6200;48.144;11.424;2022-12-07T17:02:02;3.40;99.90
12276;DHT22;6200;48.144;11.424;2022-12-07T17:04:27;3.20;99.90
12276;DHT22;6200;48.144;11.424;2022-12-07T17:06:53;3.20;99.90
12276;DHT22;6200;48.144;11.424;2022-12-07T17:09:19;3.10;99.90
12276;DHT22;6200;48.144;11.424;2022-12-07T17:11:45;3.00;99.90
12276;DHT22;6200;48.144;11.424;2022-12-07T17:14:11;3.00;99.90
12276;DHT22;6200;48.144;11.424;2022-12-07T17:16:55;2.90;99.90
12276;DHT22;6200;48.144;11.424;2022-12-07T17:19:21;2.80;99.90
12276;DHT22;6200;48.144;11.424;2022-12-07T17:21:47;2.80;99.90
12276;DHT22;6200;48.144;11.424;2022-12-07T17:24:15;2.70;99.90
12276;DHT22;6200;48.144;11.424;2022-12-07T17:26:42;2.70;99.90
12276;DHT22;6200;48.144;11.424;2022-12-07T17:29:09;2.80;99.90
12276;DHT22;6200;48.144;11.424;2022-12-07T17:31:35;2.80;99.90
12276;DHT22;6200;48.144;11.424;2022-12-07T17:34:01;2.80;99.90